createdAt,value
2018-10-02T00:02:18.542Z,13.66
2018-10-02T00:04:46.301Z,13.61
2018-10-02T00:07:14.021Z,13.53
2018-10-02T00:09:41.757Z,13.52
2018-10-02T00:12:15.166Z,13.48
2018-10-02T00:14:42.870Z,13.46
2018-10-02T00:17:10.618Z,13.49
2018-10-02T00:19:38.454Z,13.50
2018-10-02T00:22:06.390Z,13.53
2018-10-02T00:24:34.106Z,13.51
2018-10-02T00:27:01.818Z,13.51
2018-10-02T00:29:29.538Z,13.50
2018-10-02T00:31:57.316Z,13.55
2018-10-02T00:34:25.078Z,13.56
2018-10-02T00:36:52.789Z,13.47
2018-10-02T00:39:20.503Z,13.49
2018-10-02T00:41:55.386Z,13.53
2018-10-02T00:44:23.100Z,13.56
2018-10-02T00:46:50.833Z,13.61
2018-10-02T00:49:18.549Z,13.63
2018-10-02T00:51:46.331Z,13.53
2018-10-02T00:54:14.058Z,13.47
2018-10-02T00:56:41.802Z,13.47
2018-10-02T00:59:09.557Z,13.47
2018-10-02T01:01:37.286Z,13.55
2018-10-02T01:04:05.021Z,13.42
2018-10-02T01:06:32.786Z,13.36
2018-10-02T01:09:00.517Z,13.41
2018-10-02T01:11:28.266Z,13.33
2018-10-02T01:13:56.005Z,13.33
2018-10-02T01:16:23.720Z,13.37
2018-10-02T01:18:51.425Z,13.29
2018-10-02T01:21:19.128Z,13.32
2018-10-02T01:23:46.916Z,13.19
2018-10-02T01:26:14.636Z,13.20
2018-10-02T01:28:42.335Z,13.19
2018-10-02T01:31:10.029Z,13.14
2018-10-02T01:33:37.738Z,13.01
2018-10-02T01:36:06.866Z,13.05
2018-10-02T01:38:34.574Z,12.98
2018-10-02T01:41:02.299Z,13.05
2018-10-02T01:43:29.999Z,13.02
2018-10-02T01:45:57.698Z,12.91
2018-10-02T01:48:25.441Z,12.94
2018-10-02T01:50:53.144Z,12.97
2018-10-02T01:53:20.886Z,13.03
2018-10-02T01:55:48.613Z,13.00
2018-10-02T01:58:16.302Z,12.97
2018-10-02T02:00:44.005Z,12.92
2018-10-02T02:03:11.965Z,12.84
2018-10-02T02:05:39.702Z,12.78
2018-10-02T02:08:07.441Z,12.76
2018-10-02T02:10:35.255Z,12.83
2018-10-02T02:13:02.995Z,12.83
2018-10-02T02:15:30.730Z,12.75
2018-10-02T02:17:58.470Z,12.72
2018-10-02T02:20:26.176Z,12.71
2018-10-02T02:22:53.918Z,12.65
2018-10-02T02:25:21.622Z,12.66
2018-10-02T02:27:49.342Z,12.76
2018-10-02T02:30:17.062Z,12.71
2018-10-02T02:32:44.819Z,12.70
2018-10-02T02:35:12.530Z,12.53
2018-10-02T02:37:40.241Z,12.59
2018-10-02T02:40:07.989Z,12.67
2018-10-02T02:42:35.706Z,12.71
2018-10-02T02:45:03.493Z,12.60
2018-10-02T02:47:36.777Z,12.54
2018-10-02T02:50:10.099Z,12.46
2018-10-02T02:52:40.939Z,12.37
2018-10-02T02:55:08.746Z,12.40
2018-10-02T02:57:36.450Z,12.51
2018-10-02T03:00:04.584Z,12.55
2018-10-02T03:02:32.282Z,12.44
2018-10-02T03:05:00.018Z,12.45
2018-10-02T03:07:27.758Z,12.47
2018-10-02T03:09:55.618Z,12.55
2018-10-02T03:12:23.418Z,12.51
2018-10-02T03:14:51.158Z,12.54
2018-10-02T03:17:18.902Z,12.38
2018-10-02T03:19:46.662Z,12.43
2018-10-02T03:22:14.370Z,12.54
2018-10-02T03:24:42.083Z,12.43
2018-10-02T03:27:09.793Z,12.39
2018-10-02T03:29:37.514Z,12.33
2018-10-02T03:32:05.287Z,12.35
2018-10-02T03:34:32.989Z,12.35
2018-10-02T03:37:00.689Z,12.34
2018-10-02T03:39:28.418Z,12.32
2018-10-02T03:41:56.210Z,12.30
2018-10-02T03:44:23.939Z,12.24
2018-10-02T03:46:51.661Z,12.20
2018-10-02T03:49:19.361Z,12.21
2018-10-02T03:51:47.151Z,12.26
2018-10-02T03:54:14.865Z,12.14
2018-10-02T03:56:42.598Z,12.27
2018-10-02T03:59:10.326Z,12.31
2018-10-02T04:01:38.103Z,12.18
2018-10-02T04:04:05.942Z,12.15
2018-10-02T04:06:33.659Z,12.04
2018-10-02T04:09:01.365Z,11.99
2018-10-02T04:11:29.077Z,11.99
2018-10-02T04:13:56.789Z,12.13
2018-10-02T04:16:24.506Z,12.05
2018-10-02T04:18:52.214Z,12.01
2018-10-02T04:21:26.466Z,12.03
2018-10-02T04:23:54.188Z,12.05
2018-10-02T04:26:21.909Z,12.15
2018-10-02T04:28:49.628Z,12.07
2018-10-02T04:31:17.340Z,12.06
2018-10-02T04:33:45.156Z,11.94
2018-10-02T04:36:12.845Z,11.96
2018-10-02T04:38:40.586Z,12.08
2018-10-02T04:41:08.377Z,12.08
2018-10-02T04:43:36.108Z,11.98
2018-10-02T04:46:03.823Z,12.00
2018-10-02T04:48:31.517Z,12.13
2018-10-02T04:50:59.259Z,12.06
2018-10-02T04:53:26.965Z,12.21
2018-10-02T04:55:54.747Z,12.18
2018-10-02T04:58:22.406Z,12.14
2018-10-02T05:00:50.121Z,12.13
2018-10-02T05:03:17.838Z,12.09
2018-10-02T05:05:45.555Z,12.02
2018-10-02T05:08:13.327Z,12.16
2018-10-02T05:10:41.135Z,12.22
2018-10-02T05:13:08.845Z,12.29
2018-10-02T05:15:36.561Z,12.21
2018-10-02T05:18:04.322Z,12.39
2018-10-02T05:20:32.167Z,12.41
2018-10-02T05:22:59.886Z,12.30
2018-10-02T05:25:27.614Z,12.38
2018-10-02T05:27:55.326Z,12.30
2018-10-02T05:30:23.078Z,12.35
2018-10-02T05:32:50.808Z,12.53
2018-10-02T05:35:18.640Z,12.44
2018-10-02T05:37:46.527Z,12.53
2018-10-02T05:40:14.298Z,12.69
2018-10-02T05:42:42.045Z,12.75
2018-10-02T05:45:09.801Z,12.73
2018-10-02T05:47:37.614Z,12.69
2018-10-02T05:50:05.334Z,12.74
2018-10-02T05:52:33.073Z,12.78
2018-10-02T05:55:00.816Z,12.86
2018-10-02T05:57:28.958Z,12.91
2018-10-02T05:59:56.702Z,12.93
2018-10-02T06:02:27.277Z,13.02
2018-10-02T06:04:55.043Z,13.09
2018-10-02T06:07:22.765Z,13.16
2018-10-02T06:09:50.493Z,13.23
2018-10-02T06:12:18.318Z,13.30
2018-10-02T06:14:46.053Z,13.37
2018-10-02T06:17:13.781Z,13.42
2018-10-02T06:19:41.529Z,13.51
2018-10-02T06:22:10.081Z,13.59
2018-10-02T06:24:37.870Z,13.64
2018-10-02T06:27:05.973Z,13.69
2018-10-02T06:29:34.162Z,13.77
2018-10-02T06:32:01.861Z,13.82
2018-10-02T06:34:29.595Z,13.88
2018-10-02T06:36:58.515Z,13.91
2018-10-02T06:39:27.996Z,14.02
2018-10-02T06:41:55.695Z,14.09
2018-10-02T06:44:24.412Z,14.16
2018-10-02T06:46:52.135Z,14.24
2018-10-02T06:49:19.878Z,14.30
2018-10-02T06:51:47.645Z,14.35
2018-10-02T06:54:15.354Z,14.36
2018-10-02T06:56:43.130Z,14.42
2018-10-02T06:59:10.833Z,14.45
2018-10-02T07:01:38.551Z,14.58
2018-10-02T07:04:06.398Z,14.64
2018-10-02T07:06:34.203Z,14.70
2018-10-02T07:09:02.107Z,14.79
2018-10-02T07:11:29.786Z,14.89
2018-10-02T07:13:57.563Z,15.14
2018-10-02T07:16:25.270Z,15.27
2018-10-02T07:18:52.979Z,15.39
2018-10-02T07:21:20.707Z,15.44
2018-10-02T07:23:48.415Z,15.55
2018-10-02T07:26:16.218Z,15.62
2018-10-02T07:28:43.951Z,15.72
2018-10-02T07:31:11.673Z,15.94
2018-10-02T07:33:39.406Z,15.93
2018-10-02T07:36:07.202Z,16.03
2018-10-02T07:38:35.001Z,16.07
2018-10-02T07:41:02.664Z,16.17
2018-10-02T07:43:30.397Z,16.26
2018-10-02T07:45:58.130Z,16.35
2018-10-02T07:48:25.891Z,16.40
2018-10-02T07:50:53.627Z,16.47
2018-10-02T07:53:21.383Z,16.55
2018-10-02T07:55:49.113Z,16.78
2018-10-02T07:58:16.834Z,16.85
2018-10-02T08:00:44.582Z,16.80
2018-10-02T08:03:12.303Z,16.83
2018-10-02T08:05:40.105Z,16.99
2018-10-02T08:08:07.937Z,17.07
2018-10-02T08:10:35.687Z,17.10
2018-10-02T08:13:03.438Z,17.25
2018-10-02T08:15:31.259Z,17.33
2018-10-02T08:17:59.049Z,17.54
2018-10-02T08:20:26.747Z,17.65
2018-10-02T08:22:54.494Z,17.62
2018-10-02T08:25:22.258Z,17.60
2018-10-02T08:27:50.017Z,17.71
2018-10-02T08:30:17.854Z,17.73
2018-10-02T08:32:45.667Z,17.80
2018-10-02T08:35:13.423Z,17.95
2018-10-02T08:37:41.139Z,18.03
2018-10-02T08:40:08.959Z,18.04
2018-10-02T08:42:36.711Z,18.09
2018-10-02T08:45:04.592Z,18.42
2018-10-02T08:47:32.269Z,18.41
2018-10-02T08:50:00.024Z,18.60
2018-10-02T08:52:27.778Z,18.68
2018-10-02T08:54:55.560Z,18.84
2018-10-02T08:57:23.300Z,18.84
2018-10-02T08:59:51.038Z,18.70
2018-10-02T09:02:18.777Z,18.65
2018-10-02T09:04:47.556Z,18.77
2018-10-02T09:07:15.303Z,18.83
2018-10-02T09:09:43.182Z,18.93
2018-10-02T09:12:10.930Z,19.12
2018-10-02T09:14:38.656Z,18.95
2018-10-02T09:17:06.465Z,18.89
2018-10-02T09:19:34.225Z,19.00
2018-10-02T09:22:01.957Z,19.02
2018-10-02T09:24:29.700Z,19.18
2018-10-02T09:26:57.457Z,19.16
2018-10-02T09:29:25.186Z,19.29
2018-10-02T09:31:58.485Z,19.47
2018-10-02T09:34:31.778Z,19.44
2018-10-02T09:37:04.995Z,19.58
2018-10-02T09:39:38.200Z,19.51
2018-10-02T09:43:12.902Z,19.63
2018-10-02T09:45:40.786Z,19.59
2018-10-02T09:48:09.951Z,19.81
2018-10-02T09:50:37.698Z,19.91
2018-10-02T09:53:05.768Z,19.83
2018-10-02T09:55:33.847Z,19.90
2018-10-02T09:58:01.956Z,19.82
2018-10-02T10:00:35.281Z,19.91
2018-10-02T10:03:03.080Z,20.02
2018-10-02T10:05:30.839Z,20.02
2018-10-02T10:07:58.555Z,20.22
2018-10-02T10:10:26.347Z,20.32
2018-10-02T10:12:54.073Z,20.14
2018-10-02T10:15:21.810Z,20.18
2018-10-02T10:17:49.557Z,20.15
2018-10-02T10:20:17.299Z,20.34
2018-10-02T10:22:45.046Z,20.53
2018-10-02T10:25:12.826Z,20.46
2018-10-02T10:27:40.558Z,20.45
2018-10-02T10:30:09.246Z,20.44
2018-10-02T10:32:37.028Z,20.45
2018-10-02T10:35:04.888Z,20.54
2018-10-02T10:37:32.529Z,20.52
2018-10-02T10:40:00.310Z,20.77
2018-10-02T10:42:28.007Z,20.86
2018-10-02T10:44:55.718Z,20.73
2018-10-02T10:47:23.478Z,20.83
2018-10-02T10:49:51.190Z,20.87
2018-10-02T10:52:18.903Z,20.89
2018-10-02T10:54:58.278Z,21.00
2018-10-02T10:57:26.011Z,21.17
2018-10-02T10:59:53.768Z,21.16
2018-10-02T11:02:21.529Z,21.27
2018-10-02T11:04:49.470Z,21.29
2018-10-02T11:07:17.229Z,21.27
2018-10-02T11:09:44.958Z,21.28
2018-10-02T11:12:12.670Z,21.48
2018-10-02T11:14:40.402Z,21.38
2018-10-02T11:17:08.245Z,21.16
2018-10-02T11:19:36.459Z,21.05
2018-10-02T11:22:04.171Z,21.15
2018-10-02T11:24:31.923Z,21.22
2018-10-02T11:26:59.662Z,21.20
2018-10-02T11:29:27.408Z,21.20
2018-10-02T11:31:55.822Z,21.25
2018-10-02T11:34:23.591Z,21.31
2018-10-02T11:36:51.346Z,21.33
2018-10-02T11:39:19.082Z,21.38
2018-10-02T11:41:46.820Z,21.40
2018-10-02T11:44:14.647Z,21.41
2018-10-02T11:46:42.298Z,21.57
2018-10-02T11:49:10.023Z,21.59
2018-10-02T11:51:38.165Z,21.51
2018-10-02T11:54:05.919Z,21.59
2018-10-02T11:56:33.698Z,21.38
2018-10-02T11:59:01.435Z,21.47
2018-10-02T12:01:29.282Z,21.52
2018-10-02T12:03:56.951Z,21.67
2018-10-02T12:06:24.695Z,21.74
2018-10-02T12:08:52.508Z,21.71
2018-10-02T12:11:20.267Z,21.76
2018-10-02T12:13:48.135Z,21.80
2018-10-02T12:16:15.842Z,21.99
2018-10-02T12:18:43.602Z,22.14
2018-10-02T12:21:12.621Z,22.14
2018-10-02T12:23:40.376Z,21.94
2018-10-02T12:26:08.123Z,21.89
2018-10-02T12:28:35.897Z,22.03
2018-10-02T12:31:03.706Z,21.95
2018-10-02T12:33:31.470Z,22.22
2018-10-02T12:35:59.234Z,22.13
2018-10-02T12:38:27.038Z,22.08
2018-10-02T12:40:54.800Z,21.82
2018-10-02T12:43:22.519Z,21.83
2018-10-02T12:45:50.254Z,21.69
2018-10-02T12:48:17.982Z,21.73
2018-10-02T12:50:45.950Z,21.64
2018-10-02T12:53:13.751Z,21.69
2018-10-02T12:55:41.439Z,21.60
2018-10-02T12:58:09.262Z,21.65
2018-10-02T13:00:37.034Z,21.64
2018-10-02T13:03:04.778Z,21.71
2018-10-02T13:05:32.506Z,21.70
2018-10-02T13:08:00.227Z,21.75
2018-10-02T13:10:27.970Z,21.65
2018-10-02T13:12:55.811Z,21.69
2018-10-02T13:15:23.571Z,21.72
2018-10-02T13:17:51.317Z,21.78
2018-10-02T13:20:19.101Z,21.76
2018-10-02T13:22:46.838Z,21.75
2018-10-02T13:25:14.633Z,21.68
2018-10-02T13:27:42.370Z,21.67
2018-10-02T13:30:10.117Z,21.72
2018-10-02T13:32:37.832Z,21.74
2018-10-02T13:35:05.998Z,21.75
2018-10-02T13:37:33.835Z,21.72
2018-10-02T13:40:01.590Z,21.74
2018-10-02T13:42:29.329Z,21.74
2018-10-02T13:44:57.135Z,21.77
2018-10-02T13:47:24.879Z,21.69
2018-10-02T13:49:52.607Z,21.67
2018-10-02T13:52:20.404Z,21.63
2018-10-02T13:54:48.170Z,21.59
2018-10-02T13:57:15.908Z,21.61
2018-10-02T13:59:43.635Z,21.65
2018-10-02T14:02:11.390Z,21.68
2018-10-02T14:04:39.118Z,21.70
2018-10-02T14:07:06.898Z,21.64
2018-10-02T14:09:34.630Z,21.63
2018-10-02T14:12:02.395Z,21.65
2018-10-02T14:14:30.162Z,21.69
2018-10-02T14:16:57.909Z,21.64
2018-10-02T14:19:25.721Z,21.69
2018-10-02T14:21:53.456Z,21.68
2018-10-02T14:24:21.173Z,21.63
2018-10-02T14:26:48.902Z,21.62
2018-10-02T14:29:16.629Z,21.59
2018-10-02T14:31:44.366Z,21.55
2018-10-02T14:34:12.087Z,21.58
2018-10-02T14:36:39.838Z,21.62
2018-10-02T14:39:08.546Z,21.61
2018-10-02T14:41:36.379Z,21.58
2018-10-02T14:44:04.141Z,21.69
2018-10-02T14:46:31.870Z,21.75
2018-10-02T14:48:59.598Z,21.74
2018-10-02T14:51:27.357Z,21.69
2018-10-02T14:53:55.113Z,21.64
2018-10-02T14:56:22.818Z,21.69
2018-10-02T14:58:50.524Z,21.62
2018-10-02T15:01:18.343Z,21.57
2018-10-02T15:03:46.149Z,21.58
2018-10-02T15:06:13.870Z,21.46
2018-10-02T15:08:41.585Z,21.40
2018-10-02T15:11:09.566Z,21.38
2018-10-02T15:13:37.337Z,21.35
2018-10-02T15:16:05.151Z,21.40
2018-10-02T15:18:33.360Z,21.35
2018-10-02T15:21:01.081Z,21.38
2018-10-02T15:23:28.897Z,21.25
2018-10-02T15:25:56.689Z,21.19
2018-10-02T15:28:24.396Z,21.19
2018-10-02T15:30:52.126Z,21.12
2018-10-02T15:33:19.825Z,21.11
2018-10-02T15:35:47.562Z,21.08
2018-10-02T15:38:15.267Z,21.13
2018-10-02T15:40:43.098Z,21.09
2018-10-02T15:43:11.102Z,20.97
2018-10-02T15:45:38.830Z,20.96
2018-10-02T15:48:06.658Z,20.89
2018-10-02T15:50:34.412Z,20.85
2018-10-02T15:53:02.136Z,20.81
2018-10-02T15:55:29.854Z,20.80
2018-10-02T15:57:57.569Z,20.75
2018-10-02T16:00:25.312Z,20.71
2018-10-02T16:02:53.054Z,20.64
2018-10-02T16:05:20.971Z,20.64
2018-10-02T16:07:48.718Z,20.59
2018-10-02T16:10:16.475Z,20.61
2018-10-02T16:12:44.224Z,20.58
2018-10-02T16:15:11.966Z,20.57
2018-10-02T16:17:39.693Z,20.44
2018-10-02T16:20:07.479Z,20.43
2018-10-02T16:22:35.211Z,20.41
2018-10-02T16:25:02.967Z,20.30
2018-10-02T16:27:31.669Z,20.32
2018-10-02T16:29:59.357Z,20.29
2018-10-02T16:32:27.100Z,20.23
2018-10-02T16:34:54.863Z,20.19
2018-10-02T16:37:22.566Z,20.15
2018-10-02T16:39:50.314Z,20.14
2018-10-02T16:42:18.129Z,20.14
2018-10-02T16:44:45.870Z,20.16
2018-10-02T16:47:13.668Z,20.10
2018-10-02T16:49:41.334Z,20.04
2018-10-02T16:52:09.058Z,20.03
2018-10-02T16:54:36.801Z,19.99
2018-10-02T16:57:04.604Z,20.00
2018-10-02T16:59:32.293Z,19.97
2018-10-02T17:02:00.031Z,19.91
2018-10-02T17:04:27.854Z,19.81
2018-10-02T17:06:55.567Z,19.80
2018-10-02T17:09:23.285Z,19.85
2018-10-02T17:11:51.045Z,19.83
2018-10-02T17:14:18.786Z,19.76
2018-10-02T17:16:46.515Z,19.81
2018-10-02T17:19:14.265Z,19.75
2018-10-02T17:21:41.994Z,19.71
2018-10-02T17:24:09.734Z,19.58
2018-10-02T17:26:37.447Z,19.51
2018-10-02T17:29:05.386Z,19.45
2018-10-02T17:31:33.122Z,19.48
2018-10-02T17:34:00.810Z,19.28
2018-10-02T17:36:28.535Z,19.32
2018-10-02T17:38:56.238Z,19.27
2018-10-02T17:41:23.945Z,19.09
2018-10-02T17:43:51.726Z,18.99
2018-10-02T17:46:19.442Z,19.01
2018-10-02T17:48:47.170Z,19.00
2018-10-02T17:51:14.895Z,19.08
2018-10-02T17:53:42.606Z,19.08
2018-10-02T17:56:10.354Z,19.15
2018-10-02T17:58:38.066Z,19.09
2018-10-02T18:01:05.846Z,18.98
2018-10-02T18:03:33.562Z,18.86
2018-10-02T18:06:01.274Z,18.67
2018-10-02T18:08:28.977Z,18.66
2018-10-02T18:10:56.678Z,18.57
2018-10-02T18:13:24.597Z,18.59
2018-10-02T18:15:52.705Z,18.61
2018-10-02T18:18:20.406Z,18.79
2018-10-02T18:20:48.110Z,18.91
2018-10-02T18:23:15.826Z,18.90
2018-10-02T18:25:43.539Z,18.89
2018-10-02T18:28:11.271Z,18.93
2018-10-02T18:30:39.030Z,18.88
2018-10-02T18:33:06.769Z,18.79
2018-10-02T18:35:34.516Z,18.82
2018-10-02T18:38:02.240Z,18.86
2018-10-02T18:40:29.949Z,18.90
2018-10-02T18:42:57.723Z,18.88
2018-10-02T18:45:25.426Z,18.80
2018-10-02T18:47:53.563Z,18.80
2018-10-02T18:50:21.539Z,18.80
2018-10-02T18:52:49.278Z,18.86
2018-10-02T18:55:17.029Z,18.84
2018-10-02T18:57:44.765Z,18.80
2018-10-02T19:00:12.488Z,18.73
2018-10-02T19:02:40.198Z,18.66
2018-10-02T19:05:07.898Z,18.61
2018-10-02T19:07:35.606Z,18.52
2018-10-02T19:10:03.489Z,18.46
2018-10-02T19:12:31.166Z,18.56
2018-10-02T19:14:59.005Z,18.68
2018-10-02T19:17:26.730Z,18.53
2018-10-02T19:20:00.174Z,18.47
2018-10-02T19:22:27.902Z,18.52
2018-10-02T19:25:00.155Z,18.49
2018-10-02T19:27:27.814Z,18.49
2018-10-02T19:30:01.171Z,18.36
2018-10-02T19:32:28.882Z,18.36
2018-10-02T19:34:56.606Z,18.35
2018-10-02T19:37:29.978Z,18.35
2018-10-02T19:39:57.690Z,18.19
2018-10-02T19:42:25.401Z,18.22
2018-10-02T19:44:53.118Z,18.23
2018-10-02T19:47:20.870Z,18.23
2018-10-02T19:49:48.591Z,18.09
2018-10-02T19:52:17.130Z,18.00
2018-10-02T19:54:45.697Z,17.90
2018-10-02T19:57:15.893Z,18.00
2018-10-02T19:59:43.629Z,17.91
2018-10-02T20:02:11.364Z,17.89
2018-10-02T20:04:39.145Z,17.84
2018-10-02T20:07:07.025Z,18.01
2018-10-02T20:09:34.758Z,17.79
2018-10-02T20:12:02.538Z,17.63
2018-10-02T20:14:30.262Z,17.78
2018-10-02T20:16:57.991Z,17.98
2018-10-02T20:19:25.716Z,18.07
2018-10-02T20:21:53.427Z,17.83
2018-10-02T20:24:21.166Z,17.54
2018-10-02T20:26:48.922Z,17.52
2018-10-02T20:29:16.661Z,17.53
2018-10-02T20:31:46.134Z,17.35
2018-10-02T20:34:14.010Z,17.37
2018-10-02T20:36:41.805Z,17.41
2018-10-02T20:39:10.247Z,17.43
2018-10-02T20:41:37.971Z,17.37
2018-10-02T20:44:05.847Z,17.53
2018-10-02T20:46:33.595Z,17.62
2018-10-02T20:49:01.380Z,17.47
2018-10-02T20:51:29.115Z,17.31
2018-10-02T20:53:56.893Z,17.65
2018-10-02T20:56:24.706Z,17.60
2018-10-02T20:58:52.415Z,17.62
2018-10-02T21:01:20.145Z,17.20
2018-10-02T21:03:47.882Z,17.07
2018-10-02T21:06:15.602Z,16.98
2018-10-02T21:08:43.306Z,16.98
2018-10-02T21:11:11.018Z,17.22
2018-10-02T21:13:38.741Z,17.18
2018-10-02T21:16:06.797Z,17.12
2018-10-02T21:18:34.614Z,16.78
2018-10-02T21:21:02.350Z,16.75
2018-10-02T21:23:30.106Z,16.71
2018-10-02T21:25:57.838Z,16.99
2018-10-02T21:28:25.642Z,17.02
2018-10-02T21:30:53.598Z,17.19
2018-10-02T21:33:21.570Z,16.94
2018-10-02T21:35:49.284Z,16.88
2018-10-02T21:38:17.118Z,17.07
2018-10-02T21:40:45.221Z,17.10
2018-10-02T21:43:13.015Z,16.70
2018-10-02T21:45:41.152Z,16.80
2018-10-02T21:48:08.853Z,16.77
2018-10-02T21:50:36.578Z,16.79
2018-10-02T21:53:04.393Z,16.82
2018-10-02T21:55:32.094Z,17.03
2018-10-02T21:57:59.808Z,17.05
2018-10-02T22:00:30.326Z,16.91
2018-10-02T22:02:58.045Z,16.85
2018-10-02T22:05:25.859Z,16.56
2018-10-02T22:07:53.643Z,16.39
2018-10-02T22:10:21.363Z,16.30
2018-10-02T22:12:49.116Z,16.34
2018-10-02T22:15:16.883Z,16.40
2018-10-02T22:17:44.626Z,16.55
2018-10-02T22:20:12.404Z,16.53
2018-10-02T22:22:40.114Z,16.56
2018-10-02T22:25:07.836Z,16.55
2018-10-02T22:27:35.599Z,16.48
2018-10-02T22:30:03.586Z,16.53
2018-10-02T22:32:31.349Z,16.50
2018-10-02T22:34:59.057Z,16.45
2018-10-02T22:37:26.779Z,16.36
2018-10-02T22:39:54.500Z,16.44
2018-10-02T22:42:22.214Z,16.36
2018-10-02T22:44:49.933Z,16.35
2018-10-02T22:47:17.653Z,16.42
2018-10-02T22:49:45.371Z,16.19
2018-10-02T22:52:13.082Z,16.07
2018-10-02T22:54:40.783Z,16.07
2018-10-02T22:57:08.506Z,16.13
2018-10-02T22:59:36.241Z,15.91
2018-10-02T23:02:04.380Z,15.88
2018-10-02T23:04:32.082Z,15.94
2018-10-02T23:06:59.794Z,15.98
2018-10-02T23:09:27.555Z,15.95
2018-10-02T23:11:55.257Z,15.99
2018-10-02T23:14:23.004Z,15.92
2018-10-02T23:16:50.738Z,15.90
2018-10-02T23:19:18.470Z,16.15
2018-10-02T23:21:46.238Z,16.10
2018-10-02T23:24:13.950Z,16.01
2018-10-02T23:26:41.687Z,15.90
2018-10-02T23:29:09.666Z,15.85
2018-10-02T23:31:37.373Z,15.90
2018-10-02T23:34:05.108Z,15.89
2018-10-02T23:36:32.861Z,15.92
2018-10-02T23:39:00.570Z,15.89
2018-10-02T23:41:28.346Z,16.03
2018-10-02T23:43:56.056Z,15.96
2018-10-02T23:46:23.783Z,15.83
2018-10-02T23:48:51.995Z,15.78
2018-10-02T23:51:19.698Z,15.87
2018-10-02T23:53:47.414Z,15.88
2018-10-02T23:56:15.441Z,15.91
2018-10-02T23:58:43.152Z,15.85
